sensor_id;sensor_type;location;lat;lon;timestamp;P1;durP1;ratioP1;P2;durP2;ratioP2
28246;SDS011;73163;53.178;22.058;2023-11-19T00:00:15;78.95;;;36.53;;
28246;SDS011;73163;53.178;22.058;2023-11-19T00:03:30;68.47;;;34.05;;
28246;SDS011;73163;53.178;22.058;2023-11-19T00:06:40;57.65;;;28.98;;
28246;SDS011;73163;53.178;22.058;2023-11-19T00:12:32;40.35;;;21.45;;
28246;SDS011;73163;53.178;22.058;2023-11-19T00:16:41;62.53;;;28.25;;
28246;SDS011;73163;53.178;22.058;2023-11-19T00:19:48;52.10;;;25.17;;
28246;SDS011;73163;53.178;22.058;2023-11-19T00:23:01;57.72;;;25.70;;
28246;SDS011;73163;53.178;22.058;2023-11-19T00:29:49;53.65;;;26.27;;
28246;SDS011;73163;53.178;22.058;2023-11-19T00:33:37;50.35;;;24.48;;
28246;SDS011;73163;53.178;22.058;2023-11-19T00:37:48;39.60;;;19.15;;
28246;SDS011;73163;53.178;22.058;2023-11-19T00:41:33;57.03;;;25.92;;
28246;SDS011;73163;53.178;22.058;2023-11-19T00:48:27;72.15;;;30.42;;
28246;SDS011;73163;53.178;22.058;2023-11-19T00:51:47;43.47;;;20.90;;
28246;SDS011;73163;53.178;22.058;2023-11-19T00:54:24;50.67;;;23.75;;
28246;SDS011;73163;53.178;22.058;2023-11-19T00:58:08;42.63;;;20.73;;
28246;SDS011;73163;53.178;22.058;2023-11-19T01:05:20;35.17;;;18.98;;
28246;SDS011;73163;53.178;22.058;2023-11-19T01:09:42;35.00;;;16.98;;
28246;SDS011;73163;53.178;22.058;2023-11-19T01:21:22;36.70;;;17.63;;
28246;SDS011;73163;53.178;22.058;2023-11-19T01:28:31;42.80;;;18.63;;
28246;SDS011;73163;53.178;22.058;2023-11-19T01:42:51;42.20;;;19.48;;
28246;SDS011;73163;53.178;22.058;2023-11-19T01:46:16;40.15;;;18.90;;
28246;SDS011;73163;53.178;22.058;2023-11-19T01:50:01;34.20;;;17.70;;
28246;SDS011;73163;53.178;22.058;2023-11-19T01:53:43;46.53;;;18.40;;
28246;SDS011;73163;53.178;22.058;2023-11-19T02:00:40;32.30;;;16.23;;
28246;SDS011;73163;53.178;22.058;2023-11-19T02:03:30;33.60;;;16.60;;
28246;SDS011;73163;53.178;22.058;2023-11-19T02:06:23;34.08;;;17.38;;
28246;SDS011;73163;53.178;22.058;2023-11-19T02:09:59;36.63;;;18.50;;
28246;SDS011;73163;53.178;22.058;2023-11-19T02:13:23;34.20;;;16.25;;
28246;SDS011;73163;53.178;22.058;2023-11-19T02:16:54;31.05;;;16.08;;
28246;SDS011;73163;53.178;22.058;2023-11-19T02:21:07;34.85;;;16.50;;
28246;SDS011;73163;53.178;22.058;2023-11-19T02:28:29;35.30;;;17.27;;
28246;SDS011;73163;53.178;22.058;2023-11-19T02:35:04;30.25;;;15.98;;
28246;SDS011;73163;53.178;22.058;2023-11-19T02:41:20;35.60;;;18.58;;
28246;SDS011;73163;53.178;22.058;2023-11-19T02:44:14;36.55;;;17.70;;
28246;SDS011;73163;53.178;22.058;2023-11-19T02:47:24;42.15;;;19.88;;
28246;SDS011;73163;53.178;22.058;2023-11-19T02:53:46;34.30;;;18.40;;
28246;SDS011;73163;53.178;22.058;2023-11-19T02:56:16;33.05;;;18.02;;
28246;SDS011;73163;53.178;22.058;2023-11-19T02:58:54;37.08;;;17.58;;
28246;SDS011;73163;53.178;22.058;2023-11-19T03:01:42;42.53;;;19.77;;
28246;SDS011;73163;53.178;22.058;2023-11-19T03:04:47;31.90;;;16.55;;
28246;SDS011;73163;53.178;22.058;2023-11-19T03:07:48;38.10;;;17.58;;
28246;SDS011;73163;53.178;22.058;2023-11-19T03:13:57;36.47;;;17.60;;
28246;SDS011;73163;53.178;22.058;2023-11-19T03:16:49;35.75;;;17.45;;
28246;SDS011;73163;53.178;22.058;2023-11-19T03:19:41;35.88;;;16.98;;
28246;SDS011;73163;53.178;22.058;2023-11-19T03:22:15;34.33;;;17.35;;
28246;SDS011;73163;53.178;22.058;2023-11-19T03:24:46;30.80;;;16.90;;
28246;SDS011;73163;53.178;22.058;2023-11-19T03:31:00;30.75;;;15.95;;
28246;SDS011;73163;53.178;22.058;2023-11-19T03:33:48;39.05;;;19.30;;
28246;SDS011;73163;53.178;22.058;2023-11-19T03:36:52;39.40;;;19.75;;
28246;SDS011;73163;53.178;22.058;2023-11-19T03:39:36;42.13;;;19.77;;
28246;SDS011;73163;53.178;22.058;2023-11-19T03:42:21;40.10;;;19.25;;
28246;SDS011;73163;53.178;22.058;2023-11-19T03:45:03;48.58;;;21.45;;
28246;SDS011;73163;53.178;22.058;2023-11-19T03:48:15;36.60;;;18.10;;
28246;SDS011;73163;53.178;22.058;2023-11-19T03:51:11;41.42;;;18.45;;
28246;SDS011;73163;53.178;22.058;2023-11-19T03:53:46;41.70;;;17.92;;
28246;SDS011;73163;53.178;22.058;2023-11-19T03:56:33;37.42;;;17.45;;
28246;SDS011;73163;53.178;22.058;2023-11-19T03:59:16;39.80;;;17.17;;
28246;SDS011;73163;53.178;22.058;2023-11-19T04:01:55;51.75;;;20.63;;
28246;SDS011;73163;53.178;22.058;2023-11-19T04:04:48;48.65;;;20.40;;
28246;SDS011;73163;53.178;22.058;2023-11-19T04:07:21;68.15;;;26.48;;
28246;SDS011;73163;53.178;22.058;2023-11-19T04:09:59;45.85;;;20.02;;
28246;SDS011;73163;53.178;22.058;2023-11-19T04:12:35;52.72;;;21.83;;
28246;SDS011;73163;53.178;22.058;2023-11-19T04:15:35;70.90;;;32.13;;
28246;SDS011;73163;53.178;22.058;2023-11-19T04:18:11;82.00;;;37.75;;
28246;SDS011;73163;53.178;22.058;2023-11-19T04:20:55;47.03;;;22.10;;
28246;SDS011;73163;53.178;22.058;2023-11-19T04:23:30;60.00;;;27.70;;
28246;SDS011;73163;53.178;22.058;2023-11-19T04:26:08;60.13;;;24.20;;
28246;SDS011;73163;53.178;22.058;2023-11-19T04:28:47;51.90;;;22.58;;
28246;SDS011;73163;53.178;22.058;2023-11-19T04:31:19;48.05;;;20.95;;
28246;SDS011;73163;53.178;22.058;2023-11-19T04:34:09;47.40;;;21.60;;
28246;SDS011;73163;53.178;22.058;2023-11-19T04:36:43;43.47;;;19.85;;
28246;SDS011;73163;53.178;22.058;2023-11-19T04:39:22;42.75;;;21.95;;
28246;SDS011;73163;53.178;22.058;2023-11-19T04:42:00;92.82;;;47.70;;
28246;SDS011;73163;53.178;22.058;2023-11-19T04:44:28;71.10;;;31.35;;
28246;SDS011;73163;53.178;22.058;2023-11-19T04:47:27;47.53;;;22.33;;
28246;SDS011;73163;53.178;22.058;2023-11-19T04:50:01;50.40;;;22.25;;
28246;SDS011;73163;53.178;22.058;2023-11-19T04:52:30;49.53;;;21.80;;
28246;SDS011;73163;53.178;22.058;2023-11-19T04:55:08;62.90;;;26.98;;
28246;SDS011;73163;53.178;22.058;2023-11-19T04:57:43;58.45;;;25.35;;
28246;SDS011;73163;53.178;22.058;2023-11-19T05:00:16;59.47;;;24.57;;
28246;SDS011;73163;53.178;22.058;2023-11-19T05:02:46;59.33;;;26.60;;
28246;SDS011;73163;53.178;22.058;2023-11-19T05:05:20;62.33;;;26.40;;
28246;SDS011;73163;53.178;22.058;2023-11-19T05:07:50;48.55;;;23.15;;
28246;SDS011;73163;53.178;22.058;2023-11-19T05:10:25;55.38;;;24.33;;
28246;SDS011;73163;53.178;22.058;2023-11-19T05:12:55;52.58;;;22.63;;
28246;SDS011;73163;53.178;22.058;2023-11-19T05:15:42;51.20;;;20.83;;
28246;SDS011;73163;53.178;22.058;2023-11-19T05:18:30;57.13;;;23.35;;
28246;SDS011;73163;53.178;22.058;2023-11-19T05:23:32;49.88;;;20.95;;
28246;SDS011;73163;53.178;22.058;2023-11-19T05:26:01;57.63;;;24.15;;
28246;SDS011;73163;53.178;22.058;2023-11-19T05:28:32;64.05;;;24.92;;
28246;SDS011;73163;53.178;22.058;2023-11-19T05:31:03;61.53;;;26.60;;
28246;SDS011;73163;53.178;22.058;2023-11-19T05:33:33;58.47;;;24.70;;
28246;SDS011;73163;53.178;22.058;2023-11-19T05:36:01;64.72;;;25.10;;
28246;SDS011;73163;53.178;22.058;2023-11-19T05:38:30;69.97;;;28.00;;
28246;SDS011;73163;53.178;22.058;2023-11-19T05:40:59;61.85;;;25.73;;
28246;SDS011;73163;53.178;22.058;2023-11-19T05:43:27;61.65;;;26.08;;
28246;SDS011;73163;53.178;22.058;2023-11-19T05:45:59;89.15;;;32.58;;
28246;SDS011;73163;53.178;22.058;2023-11-19T05:48:27;72.30;;;28.65;;
28246;SDS011;73163;53.178;22.058;2023-11-19T05:50:55;65.05;;;26.70;;
28246;SDS011;73163;53.178;22.058;2023-11-19T05:53:23;60.42;;;25.23;;
28246;SDS011;73163;53.178;22.058;2023-11-19T05:55:52;61.25;;;25.90;;
28246;SDS011;73163;53.178;22.058;2023-11-19T05:58:26;60.53;;;24.95;;
28246;SDS011;73163;53.178;22.058;2023-11-19T06:00:57;65.22;;;25.92;;
28246;SDS011;73163;53.178;22.058;2023-11-19T06:03:28;62.25;;;25.00;;
28246;SDS011;73163;53.178;22.058;2023-11-19T06:05:59;59.28;;;25.98;;
28246;SDS011;73163;53.178;22.058;2023-11-19T06:08:27;59.92;;;25.98;;
28246;SDS011;73163;53.178;22.058;2023-11-19T06:10:55;57.58;;;25.25;;
28246;SDS011;73163;53.178;22.058;2023-11-19T06:13:23;57.92;;;25.20;;
28246;SDS011;73163;53.178;22.058;2023-11-19T06:15:53;65.22;;;28.02;;
28246;SDS011;73163;53.178;22.058;2023-11-19T06:18:23;63.05;;;27.10;;
28246;SDS011;73163;53.178;22.058;2023-11-19T06:20:52;64.90;;;27.25;;
28246;SDS011;73163;53.178;22.058;2023-11-19T06:23:43;60.03;;;26.73;;
28246;SDS011;73163;53.178;22.058;2023-11-19T06:26:16;59.78;;;25.77;;
28246;SDS011;73163;53.178;22.058;2023-11-19T06:28:50;55.88;;;25.23;;
28246;SDS011;73163;53.178;22.058;2023-11-19T06:31:21;63.88;;;27.88;;
28246;SDS011;73163;53.178;22.058;2023-11-19T06:33:54;66.63;;;28.73;;
28246;SDS011;73163;53.178;22.058;2023-11-19T10:31:24;73.90;;;31.95;;
28246;SDS011;73163;53.178;22.058;2023-11-19T10:34:25;55.72;;;22.98;;
28246;SDS011;73163;53.178;22.058;2023-11-19T13:57:29;42.17;;;20.80;;
28246;SDS011;73163;53.178;22.058;2023-11-19T14:00:02;46.95;;;20.80;;
28246;SDS011;73163;53.178;22.058;2023-11-19T14:02:37;39.58;;;20.08;;
28246;SDS011;73163;53.178;22.058;2023-11-19T14:05:06;47.45;;;22.88;;
28246;SDS011;73163;53.178;22.058;2023-11-19T14:07:35;42.70;;;21.45;;
28246;SDS011;73163;53.178;22.058;2023-11-19T14:10:03;65.13;;;27.15;;
28246;SDS011;73163;53.178;22.058;2023-11-19T14:12:33;52.40;;;24.58;;
28246;SDS011;73163;53.178;22.058;2023-11-19T14:15:00;54.42;;;27.35;;
28246;SDS011;73163;53.178;22.058;2023-11-19T14:17:37;58.00;;;28.80;;
28246;SDS011;73163;53.178;22.058;2023-11-19T14:20:06;55.90;;;27.13;;
28246;SDS011;73163;53.178;22.058;2023-11-19T14:22:41;54.10;;;24.73;;
28246;SDS011;73163;53.178;22.058;2023-11-19T14:25:10;59.42;;;28.45;;
28246;SDS011;73163;53.178;22.058;2023-11-19T14:27:43;55.63;;;27.70;;
28246;SDS011;73163;53.178;22.058;2023-11-19T14:30:13;48.38;;;25.45;;
28246;SDS011;73163;53.178;22.058;2023-11-19T14:32:44;51.42;;;25.20;;
28246;SDS011;73163;53.178;22.058;2023-11-19T14:35:13;56.25;;;27.13;;
28246;SDS011;73163;53.178;22.058;2023-11-19T14:37:41;70.35;;;34.95;;
28246;SDS011;73163;53.178;22.058;2023-11-19T14:40:09;107.53;;;49.15;;
28246;SDS011;73163;53.178;22.058;2023-11-19T14:42:38;189.40;;;90.68;;
28246;SDS011;73163;53.178;22.058;2023-11-19T14:45:06;166.23;;;79.88;;
28246;SDS011;73163;53.178;22.058;2023-11-19T14:47:39;114.40;;;57.00;;
28246;SDS011;73163;53.178;22.058;2023-11-19T14:50:07;194.70;;;102.95;;
28246;SDS011;73163;53.178;22.058;2023-11-19T14:52:36;106.07;;;51.28;;
28246;SDS011;73163;53.178;22.058;2023-11-19T14:55:04;66.50;;;30.13;;
28246;SDS011;73163;53.178;22.058;2023-11-19T14:57:33;74.72;;;34.95;;
28246;SDS011;73163;53.178;22.058;2023-11-19T15:00:03;70.25;;;33.30;;
28246;SDS011;73163;53.178;22.058;2023-11-19T15:02:40;90.25;;;39.75;;
28246;SDS011;73163;53.178;22.058;2023-11-19T15:05:08;71.28;;;33.33;;
28246;SDS011;73163;53.178;22.058;2023-11-19T15:07:40;61.33;;;28.80;;
28246;SDS011;73163;53.178;22.058;2023-11-19T15:10:08;59.08;;;26.58;;
28246;SDS011;73163;53.178;22.058;2023-11-19T15:12:38;55.17;;;26.52;;
28246;SDS011;73163;53.178;22.058;2023-11-19T15:15:08;54.92;;;25.70;;
28246;SDS011;73163;53.178;22.058;2023-11-19T15:17:37;63.40;;;31.40;;
28246;SDS011;73163;53.178;22.058;2023-11-19T15:20:05;65.13;;;30.67;;
28246;SDS011;73163;53.178;22.058;2023-11-19T15:22:33;66.18;;;31.70;;
28246;SDS011;73163;53.178;22.058;2023-11-19T15:25:02;66.25;;;30.20;;
28246;SDS011;73163;53.178;22.058;2023-11-19T15:27:30;61.03;;;28.17;;
28246;SDS011;73163;53.178;22.058;2023-11-19T15:29:58;55.42;;;26.20;;
28246;SDS011;73163;53.178;22.058;2023-11-19T15:32:29;51.20;;;25.90;;
28246;SDS011;73163;53.178;22.058;2023-11-19T15:34:58;83.95;;;39.42;;
28246;SDS011;73163;53.178;22.058;2023-11-19T15:37:26;57.45;;;27.95;;
28246;SDS011;73163;53.178;22.058;2023-11-19T15:39:54;49.63;;;25.70;;
28246;SDS011;73163;53.178;22.058;2023-11-19T15:42:22;68.47;;;29.17;;
28246;SDS011;73163;53.178;22.058;2023-11-19T15:44:50;63.22;;;30.15;;
28246;SDS011;73163;53.178;22.058;2023-11-19T15:47:18;72.60;;;35.95;;
28246;SDS011;73163;53.178;22.058;2023-11-19T15:49:52;57.47;;;30.23;;
28246;SDS011;73163;53.178;22.058;2023-11-19T15:52:20;58.03;;;29.35;;
28246;SDS011;73163;53.178;22.058;2023-11-19T15:54:48;61.67;;;31.95;;
28246;SDS011;73163;53.178;22.058;2023-11-19T15:57:16;61.42;;;31.50;;
28246;SDS011;73163;53.178;22.058;2023-11-19T15:59:48;69.60;;;35.97;;
28246;SDS011;73163;53.178;22.058;2023-11-19T16:02:16;76.65;;;38.15;;
28246;SDS011;73163;53.178;22.058;2023-11-19T16:04:44;67.82;;;32.92;;
28246;SDS011;73163;53.178;22.058;2023-11-19T16:07:15;77.82;;;36.08;;
28246;SDS011;73163;53.178;22.058;2023-11-19T16:09:43;82.28;;;36.85;;
28246;SDS011;73163;53.178;22.058;2023-11-19T16:12:11;75.97;;;34.20;;
28246;SDS011;73163;53.178;22.058;2023-11-19T16:14:40;105.80;;;41.92;;
28246;SDS011;73163;53.178;22.058;2023-11-19T16:17:09;82.13;;;36.00;;
28246;SDS011;73163;53.178;22.058;2023-11-19T16:19:37;103.00;;;42.53;;
28246;SDS011;73163;53.178;22.058;2023-11-19T16:22:08;64.93;;;29.95;;
28246;SDS011;73163;53.178;22.058;2023-11-19T16:24:38;82.68;;;40.80;;
28246;SDS011;73163;53.178;22.058;2023-11-19T16:27:07;95.97;;;39.17;;
28246;SDS011;73163;53.178;22.058;2023-11-19T16:29:35;57.35;;;27.50;;
28246;SDS011;73163;53.178;22.058;2023-11-19T16:32:04;65.78;;;31.65;;
28246;SDS011;73163;53.178;22.058;2023-11-19T16:34:33;62.40;;;29.83;;
28246;SDS011;73163;53.178;22.058;2023-11-19T16:37:09;69.45;;;31.55;;
28246;SDS011;73163;53.178;22.058;2023-11-19T16:39:36;73.03;;;34.97;;
28246;SDS011;73163;53.178;22.058;2023-11-19T16:42:08;70.18;;;34.20;;
28246;SDS011;73163;53.178;22.058;2023-11-19T16:44:37;66.07;;;33.17;;
28246;SDS011;73163;53.178;22.058;2023-11-19T16:47:05;66.80;;;34.40;;
28246;SDS011;73163;53.178;22.058;2023-11-19T16:49:34;58.03;;;30.48;;
28246;SDS011;73163;53.178;22.058;2023-11-19T16:52:02;65.57;;;35.45;;
28246;SDS011;73163;53.178;22.058;2023-11-19T16:54:31;77.60;;;38.63;;
28246;SDS011;73163;53.178;22.058;2023-11-19T16:56:59;64.75;;;33.85;;
28246;SDS011;73163;53.178;22.058;2023-11-19T16:59:27;54.97;;;28.48;;
28246;SDS011;73163;53.178;22.058;2023-11-19T17:01:59;78.57;;;36.22;;
28246;SDS011;73163;53.178;22.058;2023-11-19T17:04:28;71.35;;;35.25;;
28246;SDS011;73163;53.178;22.058;2023-11-19T17:06:56;73.38;;;33.20;;
28246;SDS011;73163;53.178;22.058;2023-11-19T17:11:55;65.25;;;29.50;;
28246;SDS011;73163;53.178;22.058;2023-11-19T17:14:23;97.65;;;41.58;;
28246;SDS011;73163;53.178;22.058;2023-11-19T17:16:52;94.32;;;39.80;;
28246;SDS011;73163;53.178;22.058;2023-11-19T17:19:19;82.53;;;37.72;;
28246;SDS011;73163;53.178;22.058;2023-11-19T17:21:48;77.63;;;35.45;;
28246;SDS011;73163;53.178;22.058;2023-11-19T17:24:22;66.15;;;30.95;;
28246;SDS011;73163;53.178;22.058;2023-11-19T17:26:52;69.68;;;31.85;;
28246;SDS011;73163;53.178;22.058;2023-11-19T17:29:24;74.28;;;34.90;;
28246;SDS011;73163;53.178;22.058;2023-11-19T17:31:53;60.15;;;30.00;;
28246;SDS011;73163;53.178;22.058;2023-11-19T17:34:35;73.45;;;35.42;;
28246;SDS011;73163;53.178;22.058;2023-11-19T17:37:07;75.00;;;35.47;;
28246;SDS011;73163;53.178;22.058;2023-11-19T17:39:34;61.60;;;30.35;;
28246;SDS011;73163;53.178;22.058;2023-11-19T17:42:04;68.18;;;29.63;;
28246;SDS011;73163;53.178;22.058;2023-11-19T17:44:32;64.18;;;28.67;;
28246;SDS011;73163;53.178;22.058;2023-11-19T17:47:02;59.17;;;28.48;;
28246;SDS011;73163;53.178;22.058;2023-11-19T17:49:30;61.35;;;28.50;;
28246;SDS011;73163;53.178;22.058;2023-11-19T17:51:58;60.20;;;28.02;;
28246;SDS011;73163;53.178;22.058;2023-11-19T17:54:26;53.88;;;24.75;;
28246;SDS011;73163;53.178;22.058;2023-11-19T17:56:55;59.47;;;27.17;;
28246;SDS011;73163;53.178;22.058;2023-11-19T17:59:29;63.55;;;28.52;;
28246;SDS011;73163;53.178;22.058;2023-11-19T18:01:59;62.72;;;28.38;;
28246;SDS011;73163;53.178;22.058;2023-11-19T18:04:29;63.63;;;27.83;;
28246;SDS011;73163;53.178;22.058;2023-11-19T18:06:57;74.32;;;35.55;;
28246;SDS011;73163;53.178;22.058;2023-11-19T18:09:25;85.03;;;39.58;;
28246;SDS011;73163;53.178;22.058;2023-11-19T18:11:54;85.82;;;35.55;;
28246;SDS011;73163;53.178;22.058;2023-11-19T18:14:22;69.00;;;31.00;;
28246;SDS011;73163;53.178;22.058;2023-11-19T18:16:51;77.22;;;34.10;;
28246;SDS011;73163;53.178;22.058;2023-11-19T18:19:19;68.72;;;31.05;;
28246;SDS011;73163;53.178;22.058;2023-11-19T18:21:52;66.40;;;31.33;;
28246;SDS011;73163;53.178;22.058;2023-11-19T18:24:20;63.90;;;28.88;;
28246;SDS011;73163;53.178;22.058;2023-11-19T18:26:49;76.15;;;32.15;;
28246;SDS011;73163;53.178;22.058;2023-11-19T18:29:16;65.82;;;28.48;;
28246;SDS011;73163;53.178;22.058;2023-11-19T18:31:45;91.28;;;40.50;;
28246;SDS011;73163;53.178;22.058;2023-11-19T18:34:13;138.27;;;44.92;;
28246;SDS011;73163;53.178;22.058;2023-11-19T18:36:41;77.75;;;31.95;;
28246;SDS011;73163;53.178;22.058;2023-11-19T18:39:09;68.20;;;30.13;;
28246;SDS011;73163;53.178;22.058;2023-11-19T18:41:38;56.72;;;26.58;;
28246;SDS011;73163;53.178;22.058;2023-11-19T18:44:06;54.00;;;26.05;;
28246;SDS011;73163;53.178;22.058;2023-11-19T18:46:35;58.10;;;25.35;;
28246;SDS011;73163;53.178;22.058;2023-11-19T18:49:02;53.08;;;24.85;;
28246;SDS011;73163;53.178;22.058;2023-11-19T18:51:32;58.65;;;26.35;;
28246;SDS011;73163;53.178;22.058;2023-11-19T18:53:59;63.53;;;26.05;;
28246;SDS011;73163;53.178;22.058;2023-11-19T18:56:28;60.08;;;27.60;;
28246;SDS011;73163;53.178;22.058;2023-11-19T18:58:56;61.95;;;27.35;;
28246;SDS011;73163;53.178;22.058;2023-11-19T19:01:24;64.88;;;28.20;;
28246;SDS011;73163;53.178;22.058;2023-11-19T19:03:56;68.75;;;31.83;;
28246;SDS011;73163;53.178;22.058;2023-11-19T19:06:24;65.35;;;28.90;;
28246;SDS011;73163;53.178;22.058;2023-11-19T19:08:52;67.72;;;29.85;;
28246;SDS011;73163;53.178;22.058;2023-11-19T19:11:20;63.72;;;28.63;;
28246;SDS011;73163;53.178;22.058;2023-11-19T19:13:48;69.00;;;29.27;;
28246;SDS011;73163;53.178;22.058;2023-11-19T19:16:17;64.63;;;28.50;;
28246;SDS011;73163;53.178;22.058;2023-11-19T19:18:44;59.05;;;25.83;;
28246;SDS011;73163;53.178;22.058;2023-11-19T19:21:13;64.30;;;26.13;;
28246;SDS011;73163;53.178;22.058;2023-11-19T19:23:41;66.18;;;29.48;;
28246;SDS011;73163;53.178;22.058;2023-11-19T19:26:10;59.10;;;26.58;;
28246;SDS011;73163;53.178;22.058;2023-11-19T19:28:38;55.50;;;26.77;;
28246;SDS011;73163;53.178;22.058;2023-11-19T19:31:06;58.50;;;25.77;;
28246;SDS011;73163;53.178;22.058;2023-11-19T19:33:34;64.88;;;27.55;;
28246;SDS011;73163;53.178;22.058;2023-11-19T19:36:02;58.78;;;28.48;;
28246;SDS011;73163;53.178;22.058;2023-11-19T19:38:30;52.80;;;24.85;;
28246;SDS011;73163;53.178;22.058;2023-11-19T19:40:58;61.67;;;28.65;;
28246;SDS011;73163;53.178;22.058;2023-11-19T19:43:31;57.17;;;26.27;;
28246;SDS011;73163;53.178;22.058;2023-11-19T19:45:59;56.67;;;26.55;;
28246;SDS011;73163;53.178;22.058;2023-11-19T19:48:27;64.70;;;30.65;;
28246;SDS011;73163;53.178;22.058;2023-11-19T19:50:55;54.53;;;25.50;;
28246;SDS011;73163;53.178;22.058;2023-11-19T19:53:23;54.63;;;25.88;;
28246;SDS011;73163;53.178;22.058;2023-11-19T19:55:52;221.65;;;78.10;;
28246;SDS011;73163;53.178;22.058;2023-11-19T19:58:20;68.53;;;29.90;;
28246;SDS011;73163;53.178;22.058;2023-11-19T20:00:49;57.65;;;26.42;;
28246;SDS011;73163;53.178;22.058;2023-11-19T20:03:21;53.83;;;25.67;;
28246;SDS011;73163;53.178;22.058;2023-11-19T20:05:49;52.85;;;24.63;;
28246;SDS011;73163;53.178;22.058;2023-11-19T20:08:17;56.30;;;27.35;;
28246;SDS011;73163;53.178;22.058;2023-11-19T20:10:45;54.45;;;26.30;;
28246;SDS011;73163;53.178;22.058;2023-11-19T20:13:13;52.35;;;25.85;;
28246;SDS011;73163;53.178;22.058;2023-11-19T20:15:42;52.88;;;26.17;;
28246;SDS011;73163;53.178;22.058;2023-11-19T20:18:11;58.33;;;27.83;;
28246;SDS011;73163;53.178;22.058;2023-11-19T20:20:42;50.65;;;25.58;;
28246;SDS011;73163;53.178;22.058;2023-11-19T20:23:10;52.78;;;26.30;;
28246;SDS011;73163;53.178;22.058;2023-11-19T20:25:38;48.22;;;23.90;;
28246;SDS011;73163;53.178;22.058;2023-11-19T20:28:06;53.28;;;25.15;;
28246;SDS011;73163;53.178;22.058;2023-11-19T20:30:34;55.60;;;25.63;;
28246;SDS011;73163;53.178;22.058;2023-11-19T20:33:02;53.53;;;25.17;;
28246;SDS011;73163;53.178;22.058;2023-11-19T20:35:29;49.35;;;23.65;;
28246;SDS011;73163;53.178;22.058;2023-11-19T20:37:57;46.60;;;24.08;;
28246;SDS011;73163;53.178;22.058;2023-11-19T20:40:25;44.53;;;23.17;;
28246;SDS011;73163;53.178;22.058;2023-11-19T20:42:53;45.67;;;23.67;;
28246;SDS011;73163;53.178;22.058;2023-11-19T20:45:21;45.97;;;23.50;;
28246;SDS011;73163;53.178;22.058;2023-11-19T20:47:49;45.25;;;22.58;;
28246;SDS011;73163;53.178;22.058;2023-11-19T20:50:18;43.58;;;22.73;;
28246;SDS011;73163;53.178;22.058;2023-11-19T20:52:49;43.53;;;22.75;;
28246;SDS011;73163;53.178;22.058;2023-11-19T20:55:18;41.88;;;21.55;;
28246;SDS011;73163;53.178;22.058;2023-11-19T20:57:46;40.38;;;21.20;;
28246;SDS011;73163;53.178;22.058;2023-11-19T21:00:16;51.03;;;26.25;;
28246;SDS011;73163;53.178;22.058;2023-11-19T21:02:45;43.22;;;21.30;;
28246;SDS011;73163;53.178;22.058;2023-11-19T21:05:13;44.72;;;22.27;;
28246;SDS011;73163;53.178;22.058;2023-11-19T21:07:41;46.47;;;23.15;;
28246;SDS011;73163;53.178;22.058;2023-11-19T21:10:09;41.60;;;22.02;;
28246;SDS011;73163;53.178;22.058;2023-11-19T21:12:39;32.50;;;16.55;;
28246;SDS011;73163;53.178;22.058;2023-11-19T21:15:07;41.03;;;20.62;;
28246;SDS011;73163;53.178;22.058;2023-11-19T21:17:35;37.92;;;20.27;;
28246;SDS011;73163;53.178;22.058;2023-11-19T21:20:04;39.42;;;21.17;;
28246;SDS011;73163;53.178;22.058;2023-11-19T21:22:32;43.63;;;20.70;;
28246;SDS011;73163;53.178;22.058;2023-11-19T21:25:00;47.70;;;22.98;;
28246;SDS011;73163;53.178;22.058;2023-11-19T21:27:28;43.40;;;22.48;;
28246;SDS011;73163;53.178;22.058;2023-11-19T21:30:00;41.88;;;21.92;;
28246;SDS011;73163;53.178;22.058;2023-11-19T21:32:31;37.42;;;21.10;;
28246;SDS011;73163;53.178;22.058;2023-11-19T21:34:59;39.90;;;21.20;;
28246;SDS011;73163;53.178;22.058;2023-11-19T21:37:27;40.15;;;20.05;;
28246;SDS011;73163;53.178;22.058;2023-11-19T21:39:55;40.47;;;20.67;;
28246;SDS011;73163;53.178;22.058;2023-11-19T21:42:23;35.35;;;19.17;;
28246;SDS011;73163;53.178;22.058;2023-11-19T21:44:51;38.10;;;20.40;;
28246;SDS011;73163;53.178;22.058;2023-11-19T21:47:19;38.22;;;19.88;;
28246;SDS011;73163;53.178;22.058;2023-11-19T21:49:49;37.30;;;19.92;;
28246;SDS011;73163;53.178;22.058;2023-11-19T21:52:17;38.35;;;19.50;;
28246;SDS011;73163;53.178;22.058;2023-11-19T21:54:46;37.30;;;19.05;;
28246;SDS011;73163;53.178;22.058;2023-11-19T21:57:13;38.25;;;19.42;;
28246;SDS011;73163;53.178;22.058;2023-11-19T21:59:42;40.40;;;18.88;;
28246;SDS011;73163;53.178;22.058;2023-11-19T22:02:09;33.33;;;17.92;;
28246;SDS011;73163;53.178;22.058;2023-11-19T22:04:37;36.22;;;18.65;;
28246;SDS011;73163;53.178;22.058;2023-11-19T22:07:05;37.10;;;19.25;;
28246;SDS011;73163;53.178;22.058;2023-11-19T22:09:34;37.53;;;19.58;;
28246;SDS011;73163;53.178;22.058;2023-11-19T22:12:02;36.90;;;18.40;;
28246;SDS011;73163;53.178;22.058;2023-11-19T22:14:30;37.63;;;18.65;;
28246;SDS011;73163;53.178;22.058;2023-11-19T22:16:59;36.15;;;18.38;;
28246;SDS011;73163;53.178;22.058;2023-11-19T22:19:27;37.85;;;18.90;;
28246;SDS011;73163;53.178;22.058;2023-11-19T22:21:55;44.05;;;20.35;;
28246;SDS011;73163;53.178;22.058;2023-11-19T22:24:23;40.22;;;20.23;;
28246;SDS011;73163;53.178;22.058;2023-11-19T22:26:51;41.53;;;20.17;;
28246;SDS011;73163;53.178;22.058;2023-11-19T22:29:19;43.40;;;21.20;;
28246;SDS011;73163;53.178;22.058;2023-11-19T22:31:47;40.38;;;19.77;;
28246;SDS011;73163;53.178;22.058;2023-11-19T22:34:15;38.72;;;19.40;;
28246;SDS011;73163;53.178;22.058;2023-11-19T22:36:43;36.15;;;18.02;;
28246;SDS011;73163;53.178;22.058;2023-11-19T22:39:12;36.70;;;19.17;;
28246;SDS011;73163;53.178;22.058;2023-11-19T22:41:42;33.28;;;18.00;;
28246;SDS011;73163;53.178;22.058;2023-11-19T22:44:10;33.92;;;18.15;;
28246;SDS011;73163;53.178;22.058;2023-11-19T22:46:37;36.53;;;18.83;;
28246;SDS011;73163;53.178;22.058;2023-11-19T22:49:07;37.92;;;18.92;;
28246;SDS011;73163;53.178;22.058;2023-11-19T22:51:34;37.97;;;18.95;;
28246;SDS011;73163;53.178;22.058;2023-11-19T22:54:03;34.90;;;18.15;;
28246;SDS011;73163;53.178;22.058;2023-11-19T22:56:31;34.63;;;17.45;;
28246;SDS011;73163;53.178;22.058;2023-11-19T22:58:59;37.72;;;18.60;;
28246;SDS011;73163;53.178;22.058;2023-11-19T23:01:27;37.70;;;18.92;;
28246;SDS011;73163;53.178;22.058;2023-11-19T23:03:55;36.75;;;18.85;;
28246;SDS011;73163;53.178;22.058;2023-11-19T23:06:23;36.60;;;19.02;;
28246;SDS011;73163;53.178;22.058;2023-11-19T23:08:51;41.03;;;20.20;;
28246;SDS011;73163;53.178;22.058;2023-11-19T23:11:18;41.70;;;19.85;;
28246;SDS011;73163;53.178;22.058;2023-11-19T23:13:46;42.17;;;20.73;;
28246;SDS011;73163;53.178;22.058;2023-11-19T23:16:14;41.13;;;19.80;;
28246;SDS011;73163;53.178;22.058;2023-11-19T23:18:45;39.50;;;20.05;;
28246;SDS011;73163;53.178;22.058;2023-11-19T23:21:12;40.40;;;19.95;;
28246;SDS011;73163;53.178;22.058;2023-11-19T23:23:41;39.53;;;19.73;;